Time;durP1;ratioP1;P1;durP2;ratioP2;P2;SDS_P1;SDS_P2;PMS_P1;PMS_P2;Temp;Humidity;BMP_temperature;BMP_pressure;BME280_temperature;BME280_humidity;BME280_pressure;Samples;Min_cycle;Max_cycle;Signal;HPM_P1;HPM_P2
2022/04/05 00:01:36;;;;;;;0.00;0.00;;;9.20;99.90;;;;;;4957869;28;20031;-76
2022/04/05 00:04:02;;;;;;;0.00;0.00;;;9.20;99.90;;;;;;4954607;28;20023;-76
2022/04/05 00:06:28;;;;;;;0.00;0.00;;;9.20;99.90;;;;;;4954806;28;20093;-79
2022/04/05 00:08:54;;;;;;;0.00;0.00;;;9.20;99.90;;;;;;4969789;28;20521;-76
2022/04/05 00:11:19;;;;;;;0.00;0.00;;;9.20;99.90;;;;;;4954741;28;20505;-76
2022/04/05 00:13:45;;;;;;;0.00;0.00;;;9.20;99.90;;;;;;4954757;28;20058;-76
2022/04/05 00:16:11;;;;;;;0.00;0.00;;;9.20;99.90;;;;;;4955142;28;20137;-76
2022/04/05 00:18:38;;;;;;;1.17;0.80;;;9.20;99.90;;;;;;4954282;28;20031;-79
2022/04/05 00:21:05;;;;;;;0.35;0.35;;;9.30;99.90;;;;;;4953533;28;20059;-79
2022/04/05 00:23:30;;;;;;;0.30;0.30;;;9.30;99.90;;;;;;4969595;28;20032;-76
2022/04/05 00:25:56;;;;;;;0.00;0.00;;;9.30;99.90;;;;;;4954904;28;20035;-75
2022/04/05 00:28:22;;;;;;;0.00;0.00;;;9.30;99.90;;;;;;4954005;28;20509;-79
2022/04/05 00:30:48;;;;;;;0.00;0.00;;;9.30;99.90;;;;;;4954688;28;20475;-75
2022/04/05 00:33:13;;;;;;;0.00;0.00;;;9.30;99.90;;;;;;4954349;28;20038;-79
2022/04/05 00:35:39;;;;;;;0.00;0.00;;;9.30;99.90;;;;;;4954197;28;20079;-80
2022/04/05 00:38:06;;;;;;;2.08;0.65;;;9.30;99.90;;;;;;4967876;28;20086;-76
2022/04/05 00:40:31;;;;;;;0.00;0.00;;;9.30;99.90;;;;;;4974116;28;20037;-76
2022/04/05 00:42:58;;;;;;;0.00;0.00;;;9.30;99.90;;;;;;4974125;28;20110;-80
2022/04/05 00:45:24;;;;;;;0.10;0.10;;;9.30;99.90;;;;;;4973810;28;20035;-79
2022/04/05 00:47:51;;;;;;;0.00;0.00;;;9.30;99.90;;;;;;4973614;28;20106;-76
2022/04/05 00:50:22;;;;;;;0.00;0.00;;;9.30;99.90;;;;;;4973772;28;20070;-80
2022/04/05 00:52:48;;;;;;;0.00;0.00;;;9.40;99.90;;;;;;4973815;28;20027;-79
2022/04/05 00:55:18;;;;;;;0.00;0.00;;;9.40;99.90;;;;;;4973492;28;20043;-79
2022/04/05 00:57:46;;;;;;;0.00;0.00;;;9.30;99.90;;;;;;4976405;28;20076;-77
2022/04/05 01:00:14;;;;;;;0.00;0.00;;;9.30;99.90;;;;;;4977887;28;20073;-75
2022/04/05 01:02:40;;;;;;;0.00;0.00;;;9.40;99.90;;;;;;4992520;28;20053;-76
2022/04/05 01:05:07;;;;;;;0.25;0.25;;;9.40;99.90;;;;;;4977690;28;20054;-80
2022/04/05 01:07:34;;;;;;;0.25;0.13;;;9.40;99.90;;;;;;4977462;28;20117;-76
2022/04/05 01:10:00;;;;;;;0.00;0.00;;;9.40;99.90;;;;;;4977023;28;20073;-76
2022/04/05 01:12:26;;;;;;;0.00;0.00;;;9.40;99.90;;;;;;4977040;28;20034;-78
2022/04/05 01:14:52;;;;;;;0.00;0.00;;;9.40;99.90;;;;;;4977196;28;20058;-76
2022/04/05 01:17:19;;;;;;;0.00;0.00;;;9.40;99.90;;;;;;4977385;28;20512;-80
2022/04/05 01:19:47;;;;;;;0.90;0.73;;;9.40;99.90;;;;;;4975486;28;20030;-76
2022/04/05 01:22:13;;;;;;;0.20;0.13;;;9.40;99.90;;;;;;4977238;28;20029;-79
2022/04/05 01:24:38;;;;;;;0.00;0.00;;;9.40;99.90;;;;;;4977605;28;20066;-79
2022/04/05 01:27:06;;;;;;;2.45;0.80;;;9.40;99.90;;;;;;4977217;28;20058;-79
2022/04/05 01:29:32;;;;;;;1.38;0.80;;;9.40;99.90;;;;;;4976753;28;20030;-76
2022/04/05 01:32:04;;;;;;;0.10;0.10;;;9.40;99.90;;;;;;4976039;28;20029;-76
2022/04/05 01:34:32;;;;;;;0.00;0.00;;;9.40;99.90;;;;;;4974902;28;20469;-76
2022/04/05 01:37:01;;;;;;;0.00;0.00;;;9.50;99.90;;;;;;4976012;28;20266;-79
2022/04/05 01:39:28;;;;;;;0.00;0.00;;;9.50;99.90;;;;;;4976414;28;20027;-76
2022/04/05 01:41:57;;;;;;;0.00;0.00;;;9.50;99.90;;;;;;4977221;28;20114;-80
2022/04/05 01:44:24;;;;;;;0.25;0.25;;;9.50;99.90;;;;;;4976638;28;20035;-79
2022/04/05 01:46:50;;;;;;;0.00;0.00;;;9.50;99.90;;;;;;4976879;28;20022;-80
2022/04/05 01:49:16;;;;;;;0.00;0.00;;;9.50;99.90;;;;;;4976395;28;20037;-76
2022/04/05 01:51:44;;;;;;;0.00;0.00;;;9.50;99.90;;;;;;4975947;28;20027;-79
2022/04/05 01:54:11;;;;;;;0.13;0.13;;;9.50;99.90;;;;;;4976357;28;20031;-79
2022/04/05 01:56:49;;;;;;;0.32;0.32;;;9.50;99.90;;;;;;4976420;28;20465;-76
2022/04/05 01:59:20;;;;;;;0.00;0.00;;;9.50;99.90;;;;;;4976621;28;20097;-80
2022/04/05 02:01:46;;;;;;;0.00;0.00;;;9.50;99.90;;;;;;4976186;28;20030;-80
2022/04/05 02:04:12;;;;;;;1.27;0.45;;;9.50;99.90;;;;;;4976090;28;20398;-80
2022/04/05 02:06:39;;;;;;;0.00;0.00;;;9.50;99.90;;;;;;4974516;28;20069;-76
2022/04/05 02:09:06;;;;;;;0.00;0.00;;;9.50;99.90;;;;;;4978557;28;20581;-79
2022/04/05 02:11:32;;;;;;;0.00;0.00;;;9.50;99.90;;;;;;4975850;28;20037;-76
2022/04/05 02:13:57;;;;;;;0.00;0.00;;;9.50;99.90;;;;;;4975397;28;20018;-81
2022/04/05 02:16:23;;;;;;;0.00;0.00;;;9.50;99.90;;;;;;4974941;28;20086;-77
2022/04/05 02:18:52;;;;;;;4.95;1.17;;;9.50;99.90;;;;;;4975652;28;20058;-76
2022/04/05 02:21:18;;;;;;;0.00;0.00;;;9.60;99.90;;;;;;4976151;28;20034;-79
2022/04/05 02:23:44;;;;;;;0.00;0.00;;;9.50;99.90;;;;;;4976127;28;20034;-79
2022/04/05 02:26:11;;;;;;;0.00;0.00;;;9.60;99.90;;;;;;4974492;28;20487;-79
2022/04/05 02:28:36;;;;;;;0.10;0.10;;;9.60;99.90;;;;;;4974559;28;20406;-80
2022/04/05 02:31:03;;;;;;;0.00;0.00;;;9.60;99.90;;;;;;4975537;28;20028;-80
2022/04/05 02:33:28;;;;;;;0.00;0.00;;;9.60;99.90;;;;;;4975558;28;20030;-79
2022/04/05 02:35:54;;;;;;;0.00;0.00;;;9.60;99.90;;;;;;4975923;28;20039;-76
2022/04/05 02:38:19;;;;;;;0.70;0.40;;;9.60;99.90;;;;;;4974997;28;20030;-76
2022/04/05 02:40:45;;;;;;;0.00;0.00;;;9.60;99.90;;;;;;4976039;28;20027;-76
2022/04/05 02:43:11;;;;;;;0.00;0.00;;;9.60;99.90;;;;;;4978809;28;20475;-80
2022/04/05 02:45:37;;;;;;;0.20;0.20;;;9.60;99.90;;;;;;4975563;28;20052;-79
2022/04/05 02:48:03;;;;;;;0.10;0.10;;;9.60;99.90;;;;;;4974843;28;20456;-76
2022/04/05 02:50:29;;;;;;;0.00;0.00;;;9.60;99.90;;;;;;4975692;28;20038;-75
2022/04/05 02:52:55;;;;;;;0.00;0.00;;;9.60;99.90;;;;;;4975279;28;20398;-76
2022/04/05 02:55:21;;;;;;;0.00;0.00;;;9.60;99.90;;;;;;4975206;28;20046;-76
2022/04/05 02:57:47;;;;;;;0.00;0.00;;;9.70;99.90;;;;;;4975571;28;20430;-80
2022/04/05 03:00:17;;;;;;;1.10;0.47;;;9.70;99.90;;;;;;4975364;28;20474;-76
2022/04/05 03:02:44;;;;;;;0.00;0.00;;;9.60;99.90;;;;;;4961088;28;20023;-76
2022/04/05 03:05:11;;;;;;;0.00;0.00;;;9.70;99.90;;;;;;4956099;28;20034;-76
2022/04/05 03:07:37;;;;;;;0.00;0.00;;;9.70;99.90;;;;;;4955809;28;20082;-76
2022/04/05 03:10:09;;;;;;;0.15;0.15;;;9.70;99.90;;;;;;4955559;28;20027;-76
2022/04/05 03:12:36;;;;;;;0.00;0.00;;;9.70;99.90;;;;;;4955765;28;20502;-76
2022/04/05 03:15:03;;;;;;;0.10;0.05;;;9.70;99.90;;;;;;4955579;28;20103;-76
2022/04/05 03:17:29;;;;;;;0.90;0.80;;;9.70;99.90;;;;;;4955653;28;20406;-76
2022/04/05 03:19:55;;;;;;;0.20;0.20;;;9.70;99.90;;;;;;4955079;28;20031;-76
2022/04/05 03:22:20;;;;;;;0.00;0.00;;;9.70;99.90;;;;;;4969918;28;20077;-76
2022/04/05 03:24:46;;;;;;;0.00;0.00;;;9.70;99.90;;;;;;4955823;28;20035;-76
2022/04/05 03:27:12;;;;;;;0.45;0.45;;;9.70;99.90;;;;;;4955508;28;20150;-76
2022/04/05 03:29:38;;;;;;;0.00;0.00;;;9.70;99.90;;;;;;4955517;28;20031;-76
2022/04/05 03:32:05;;;;;;;21.55;0.95;;;9.70;99.90;;;;;;4955681;28;20672;-76
2022/04/05 03:34:30;;;;;;;0.00;0.00;;;9.70;99.90;;;;;;4969730;28;20494;-78
2022/04/05 03:36:56;;;;;;;1.08;0.70;;;9.70;99.90;;;;;;4959534;28;20034;-79
2022/04/05 03:39:22;;;;;;;1.30;0.88;;;9.70;99.90;;;;;;4974086;28;20026;-76
2022/04/05 03:41:49;;;;;;;0.57;0.55;;;9.70;99.90;;;;;;4974871;28;20035;-80
2022/04/05 03:44:15;;;;;;;0.00;0.00;;;9.70;99.90;;;;;;4975066;28;20483;-76
2022/04/05 03:46:41;;;;;;;0.50;0.30;;;9.80;99.90;;;;;;4974408;28;20033;-79
2022/04/05 03:49:07;;;;;;;0.52;0.30;;;9.80;99.90;;;;;;4974570;28;20041;-79
2022/04/05 03:51:32;;;;;;;0.00;0.00;;;9.80;99.90;;;;;;4974520;28;20483;-79
2022/04/05 03:53:58;;;;;;;0.00;0.00;;;9.80;99.90;;;;;;4974581;28;20085;-76
2022/04/05 03:56:24;;;;;;;0.05;0.05;;;9.80;99.90;;;;;;4973935;28;20038;-76
2022/04/05 03:58:50;;;;;;;0.93;0.15;;;9.80;99.90;;;;;;4979464;28;20049;-78
2022/04/05 04:01:17;;;;;;;0.57;0.35;;;9.80;99.90;;;;;;4976009;28;20110;-76
2022/04/05 04:03:43;;;;;;;0.00;0.00;;;9.80;99.90;;;;;;4973871;28;20035;-78
2022/04/05 04:06:08;;;;;;;0.00;0.00;;;9.80;99.90;;;;;;4974454;28;20513;-78
2022/04/05 04:08:35;;;;;;;0.00;0.00;;;9.80;99.90;;;;;;4974202;28;20414;-79
2022/04/05 04:11:01;;;;;;;0.00;0.00;;;9.80;99.90;;;;;;4974124;28;20390;-76
2022/04/05 04:13:27;;;;;;;0.00;0.00;;;9.80;99.90;;;;;;4973522;28;20023;-77
2022/04/05 04:15:52;;;;;;;0.57;0.40;;;9.80;99.90;;;;;;4974121;28;20034;-79
2022/04/05 04:18:18;;;;;;;0.00;0.00;;;9.80;99.90;;;;;;4972425;28;20514;-76
2022/04/05 04:20:44;;;;;;;1.20;0.50;;;9.70;99.90;;;;;;4974151;28;20030;-76
2022/04/05 04:23:10;;;;;;;0.00;0.00;;;9.70;99.90;;;;;;4974263;28;20038;-76
2022/04/05 04:25:40;;;;;;;0.00;0.00;;;9.70;99.90;;;;;;4974090;28;20029;-79
2022/04/05 04:28:08;;;;;;;0.00;0.00;;;9.80;99.90;;;;;;4973959;28;20030;-77
2022/04/05 04:30:35;;;;;;;0.00;0.00;;;9.80;99.90;;;;;;4973773;28;20031;-79
2022/04/05 04:33:01;;;;;;;0.43;0.25;;;9.80;99.90;;;;;;4977108;28;20054;-76
2022/04/05 04:35:28;;;;;;;0.00;0.00;;;9.80;99.90;;;;;;4978084;28;20462;-77
2022/04/05 04:37:54;;;;;;;0.00;0.00;;;9.80;99.90;;;;;;4976629;28;20101;-76
2022/04/05 04:40:20;;;;;;;0.05;0.05;;;9.80;99.90;;;;;;4962786;28;20495;-76
2022/04/05 04:42:46;;;;;;;0.00;0.00;;;9.80;99.90;;;;;;4973541;28;20066;-76
2022/04/05 04:45:12;;;;;;;0.00;0.00;;;9.80;99.90;;;;;;4958547;28;20122;-76
2022/04/05 04:47:38;;;;;;;0.00;0.00;;;9.80;99.90;;;;;;4958257;28;20031;-76
2022/04/05 04:50:05;;;;;;;0.00;0.00;;;9.80;99.90;;;;;;4958796;28;20098;-76
2022/04/05 04:52:31;;;;;;;0.57;0.57;;;9.80;99.90;;;;;;4966621;28;20145;-79
2022/04/05 04:54:57;;;;;;;0.45;0.43;;;9.80;99.90;;;;;;4977227;28;20155;-79
2022/04/05 04:57:25;;;;;;;0.43;0.32;;;9.80;99.90;;;;;;4975132;28;20042;-79
2022/04/05 04:59:50;;;;;;;5.47;1.75;;;9.80;99.90;;;;;;4977544;28;20030;-76
2022/04/05 05:02:16;;;;;;;0.35;0.25;;;9.80;99.90;;;;;;4977379;28;20398;-76
2022/04/05 05:04:42;;;;;;;0.00;0.00;;;9.80;99.90;;;;;;4976662;28;20030;-76
2022/04/05 05:07:07;;;;;;;0.35;0.35;;;9.80;99.90;;;;;;4976842;28;20031;-80
2022/04/05 05:09:33;;;;;;;0.00;0.00;;;9.80;99.90;;;;;;4975313;28;20030;-76
2022/04/05 05:12:00;;;;;;;0.43;0.22;;;9.80;99.90;;;;;;4976065;28;20117;-80
2022/04/05 05:14:27;;;;;;;0.00;0.00;;;9.90;99.90;;;;;;4976722;28;20027;-78
2022/04/05 05:16:53;;;;;;;0.10;0.00;;;9.80;99.90;;;;;;4976877;28;20037;-79
2022/04/05 05:19:20;;;;;;;0.10;0.10;;;9.80;99.90;;;;;;4976603;28;20027;-76
2022/04/05 05:21:46;;;;;;;0.00;0.00;;;9.80;99.90;;;;;;4977200;28;20027;-77
2022/04/05 05:24:11;;;;;;;0.00;0.00;;;9.80;99.90;;;;;;4976860;28;20022;-76
2022/04/05 05:26:37;;;;;;;0.10;0.10;;;9.80;99.90;;;;;;4977168;28;20034;-77
2022/04/05 05:29:03;;;;;;;0.00;0.00;;;9.80;99.90;;;;;;4976635;28;20034;-76
2022/04/05 05:31:28;;;;;;;0.00;0.00;;;9.80;99.90;;;;;;4973545;28;20081;-77
2022/04/05 05:33:54;;;;;;;0.10;0.10;;;9.80;99.90;;;;;;4975843;28;20023;-76
2022/04/05 05:36:20;;;;;;;0.00;0.00;;;9.70;99.90;;;;;;4975838;28;20041;-76
2022/04/05 05:38:45;;;;;;;0.00;0.00;;;9.70;99.90;;;;;;4974898;28;20034;-75
2022/04/05 05:41:11;;;;;;;0.55;0.55;;;9.60;99.90;;;;;;4974994;28;20066;-79
2022/04/05 05:43:38;;;;;;;1.13;0.55;;;9.50;99.90;;;;;;4975781;28;20035;-76
2022/04/05 05:46:06;;;;;;;0.28;0.20;;;9.50;99.90;;;;;;4975886;28;20031;-76
2022/04/05 05:48:33;;;;;;;0.00;0.00;;;9.50;99.90;;;;;;4976165;28;20019;-77
2022/04/05 05:50:59;;;;;;;0.00;0.00;;;9.40;99.90;;;;;;4976217;28;20070;-79
2022/04/05 05:53:24;;;;;;;0.00;0.00;;;9.40;99.90;;;;;;4976193;28;20435;-76
2022/04/05 05:55:50;;;;;;;0.00;0.00;;;9.40;99.90;;;;;;4975480;28;20422;-76
2022/04/05 05:58:16;;;;;;;0.00;0.00;;;9.40;99.90;;;;;;4976321;28;20443;-76
2022/04/05 06:00:41;;;;;;;0.00;0.00;;;9.40;99.90;;;;;;4970717;28;20023;-76
2022/04/05 06:03:10;;;;;;;0.00;0.00;;;9.30;99.90;;;;;;4965177;28;20491;-76
2022/04/05 06:05:36;;;;;;;0.00;0.00;;;9.30;99.90;;;;;;4971809;28;20419;-79
2022/04/05 06:08:04;;;;;;;0.52;0.52;;;9.30;99.90;;;;;;4973596;28;20031;-76
2022/04/05 06:10:30;;;;;;;0.00;0.00;;;9.30;99.90;;;;;;4973027;28;20402;-81
2022/04/05 06:12:57;;;;;;;0.00;0.00;;;9.20;99.90;;;;;;4973496;28;20019;-76
2022/04/05 06:15:25;;;;;;;5.38;1.55;;;9.20;99.90;;;;;;4990826;28;20030;-76
2022/04/05 06:17:52;;;;;;;0.00;0.00;;;9.20;99.90;;;;;;4998872;28;20031;-76
2022/04/05 06:20:20;;;;;;;1.30;1.00;;;9.20;99.90;;;;;;4984129;28;20129;-76
2022/04/05 06:22:48;;;;;;;0.00;0.00;;;9.20;99.90;;;;;;4974777;28;20556;-77
2022/04/05 06:25:17;;;;;;;0.00;0.00;;;9.20;99.90;;;;;;4970853;28;20094;-77
2022/04/05 06:27:43;;;;;;;0.00;0.00;;;9.20;99.90;;;;;;4970184;28;20030;-76
2022/04/05 06:30:11;;;;;;;0.00;0.00;;;9.20;99.90;;;;;;4972440;28;20027;-76
2022/04/05 06:32:37;;;;;;;0.00;0.00;;;9.20;99.90;;;;;;4972500;28;20022;-78
2022/04/05 06:35:06;;;;;;;0.00;0.00;;;9.20;99.90;;;;;;4972436;28;20073;-77
2022/04/05 06:37:32;;;;;;;0.00;0.00;;;9.20;99.90;;;;;;4972701;28;20110;-76
2022/04/05 06:39:58;;;;;;;0.43;0.43;;;9.20;99.90;;;;;;4970759;28;20161;-75
2022/04/05 06:42:25;;;;;;;0.00;0.00;;;9.30;99.90;;;;;;4972812;28;20039;-75
2022/04/05 06:44:53;;;;;;;0.00;0.00;;;9.20;99.90;;;;;;4971196;28;20034;-75
2022/04/05 06:47:19;;;;;;;0.00;0.00;;;9.30;99.90;;;;;;4965283;28;20038;-75
2022/04/05 06:49:44;;;;;;;0.00;0.00;;;9.30;99.90;;;;;;4972291;28;20023;-77
2022/04/05 06:52:10;;;;;;;0.00;0.00;;;9.30;99.90;;;;;;4971821;28;20093;-78
2022/04/05 06:54:36;;;;;;;0.00;0.00;;;9.20;99.90;;;;;;4970013;28;20026;-76
2022/04/05 06:57:01;;;;;;;0.00;0.00;;;9.20;99.90;;;;;;4973142;28;20027;-75
2022/04/05 06:59:27;;;;;;;0.75;0.75;;;9.30;99.90;;;;;;4972361;28;20026;-75
2022/04/05 07:01:53;;;;;;;0.00;0.00;;;9.30;99.90;;;;;;4970813;28;20058;-78
2022/04/05 07:04:18;;;;;;;0.00;0.00;;;9.30;99.90;;;;;;4972908;28;20035;-78
2022/04/05 07:06:44;;;;;;;0.13;0.13;;;9.30;99.90;;;;;;4971158;28;20023;-75
2022/04/05 07:09:09;;;;;;;0.10;0.10;;;9.30;99.90;;;;;;4967845;28;20030;-75
2022/04/05 07:11:35;;;;;;;0.00;0.00;;;9.40;99.90;;;;;;4966578;28;20027;-77
2022/04/05 07:14:01;;;;;;;0.00;0.00;;;9.40;99.90;;;;;;4964747;28;20038;-75
2022/04/05 07:16:27;;;;;;;0.00;0.00;;;9.40;99.90;;;;;;4971097;28;20034;-78
2022/04/05 07:18:52;;;;;;;0.35;0.35;;;9.40;99.90;;;;;;4968076;28;20035;-75
2022/04/05 07:21:20;;;;;;;0.00;0.00;;;9.40;99.90;;;;;;4965865;28;20584;-75
2022/04/05 07:23:47;;;;;;;0.00;0.00;;;9.40;99.90;;;;;;4969680;28;20482;-75
2022/04/05 07:26:13;;;;;;;0.00;0.00;;;9.40;99.90;;;;;;4969428;28;20023;-75
2022/04/05 07:28:39;;;;;;;0.10;0.08;;;9.50;99.90;;;;;;4969030;28;20513;-77
2022/04/05 07:31:05;;;;;;;0.10;0.10;;;9.50;99.90;;;;;;4968380;28;20097;-77
2022/04/05 07:33:31;;;;;;;0.00;0.00;;;9.50;99.90;;;;;;4969900;28;20081;-75
2022/04/05 07:35:58;;;;;;;0.52;0.32;;;9.60;99.90;;;;;;4967935;28;20034;-75
2022/04/05 07:38:26;;;;;;;0.20;0.10;;;9.60;99.90;;;;;;4969394;28;20031;-76
2022/04/05 07:41:09;;;;;;;0.00;0.00;;;9.60;99.90;;;;;;4969155;28;20426;-75
2022/04/05 07:43:35;;;;;;;0.00;0.00;;;9.60;99.90;;;;;;4969862;28;20054;-77
2022/04/05 07:46:01;;;;;;;0.00;0.00;;;9.60;99.90;;;;;;4969973;28;20110;-75
2022/04/05 07:48:28;;;;;;;0.00;0.00;;;9.60;99.90;;;;;;4970139;28;20085;-75
2022/04/05 07:50:54;;;;;;;0.10;0.10;;;9.60;99.90;;;;;;4964142;28;20411;-75
2022/04/05 07:53:20;;;;;;;0.00;0.00;;;9.70;99.90;;;;;;4969874;28;20039;-75
2022/04/05 07:55:46;;;;;;;4.40;1.55;;;9.70;99.90;;;;;;4969128;28;20097;-77
2022/04/05 07:58:12;;;;;;;0.00;0.00;;;9.70;99.90;;;;;;4969620;28;20035;-76
2022/04/05 08:00:38;;;;;;;0.00;0.00;;;9.80;99.90;;;;;;4969375;28;20035;-75
2022/04/05 08:03:04;;;;;;;0.00;0.00;;;9.90;99.90;;;;;;4965130;28;20037;-75
2022/04/05 08:05:30;;;;;;;0.00;0.00;;;9.80;99.90;;;;;;4968891;28;20102;-77
2022/04/05 08:07:56;;;;;;;0.10;0.10;;;9.80;99.90;;;;;;4969167;28;20449;-77
2022/04/05 08:10:22;;;;;;;0.20;0.20;;;9.80;99.90;;;;;;4968485;28;20094;-77
2022/04/05 08:12:49;;;;;;;0.00;0.00;;;9.90;99.90;;;;;;4967741;28;20113;-77
2022/04/05 08:15:21;;;;;;;0.10;0.10;;;9.90;99.90;;;;;;4972237;28;20043;-75
2022/04/05 08:17:48;;;;;;;0.00;0.00;;;9.90;99.90;;;;;;4968350;28;20035;-75
2022/04/05 08:20:15;;;;;;;0.00;0.00;;;10.00;99.90;;;;;;4965370;28;20289;-76
2022/04/05 08:22:41;;;;;;;0.08;0.03;;;10.00;99.90;;;;;;4968692;28;20473;-77
2022/04/05 08:25:08;;;;;;;0.00;0.00;;;10.00;99.90;;;;;;4969149;28;20359;-77
2022/04/05 08:27:33;;;;;;;0.00;0.00;;;10.10;99.90;;;;;;4969677;28;20564;-75
2022/04/05 08:30:00;;;;;;;0.00;0.00;;;10.10;99.90;;;;;;4968624;28;20102;-77
2022/04/05 08:32:27;;;;;;;0.10;0.10;;;10.20;99.90;;;;;;4969195;28;20031;-74
2022/04/05 08:34:53;;;;;;;0.38;0.32;;;10.10;99.90;;;;;;4968662;28;20482;-77
2022/04/05 08:37:19;;;;;;;0.00;0.00;;;10.20;99.90;;;;;;4968996;28;20117;-77
2022/04/05 08:39:44;;;;;;;0.00;0.00;;;10.30;99.90;;;;;;4968491;28;20521;-74
2022/04/05 08:42:11;;;;;;;0.00;0.00;;;10.30;99.90;;;;;;4967212;28;20027;-75
2022/04/05 08:44:38;;;;;;;0.00;0.00;;;10.30;99.90;;;;;;4969265;28;20030;-75
2022/04/05 08:47:04;;;;;;;0.00;0.00;;;10.30;99.90;;;;;;4967924;28;20035;-77
2022/04/05 08:49:31;;;;;;;0.00;0.00;;;10.40;99.90;;;;;;4966392;28;20552;-76
2022/04/05 08:51:57;;;;;;;0.00;0.00;;;10.40;99.90;;;;;;4968098;28;20375;-77
2022/04/05 08:54:23;;;;;;;0.13;0.13;;;10.40;99.90;;;;;;4967475;28;20033;-75
2022/04/05 08:56:50;;;;;;;0.00;0.00;;;10.40;99.90;;;;;;4965103;28;20106;-77
2022/04/05 08:59:16;;;;;;;0.00;0.00;;;10.40;99.90;;;;;;4965881;28;20027;-77
2022/04/05 09:01:43;;;;;;;0.00;0.00;;;10.50;99.90;;;;;;4970709;28;20019;-76
2022/04/05 09:04:10;;;;;;;1.45;1.35;;;10.40;99.90;;;;;;4969915;28;20039;-74
2022/04/05 09:06:36;;;;;;;0.00;0.00;;;10.40;99.90;;;;;;4970147;28;20054;-76
2022/04/05 09:09:13;;;;;;;0.00;0.00;;;10.50;99.90;;;;;;4964349;28;20479;-75
2022/04/05 09:11:56;;;;;;;0.00;0.00;;;10.50;99.90;;;;;;4969582;28;20019;-76
2022/04/05 09:14:25;;;;;;;;;;;10.50;99.90;;;;;;4968828;28;20054;-76
2022/04/05 09:17:06;;;;;;;0.00;0.00;;;10.50;99.90;;;;;;4970389;28;19916;-76
2022/04/05 09:19:42;;;;;;;0.00;0.00;;;10.50;99.90;;;;;;4971003;28;20510;-76
2022/04/05 09:22:08;;;;;;;0.00;0.00;;;10.50;99.90;;;;;;4973854;28;20118;-75
2022/04/05 09:24:36;;;;;;;0.00;0.00;;;10.60;99.90;;;;;;4971830;28;20033;-77
2022/04/05 09:27:02;;;;;;;0.00;0.00;;;10.60;99.90;;;;;;4973286;28;20466;-77
2022/04/05 09:29:42;;;;;;;0.10;0.10;;;10.50;99.90;;;;;;4972492;28;20034;-75
2022/04/05 09:32:08;;;;;;;6.70;1.45;;;10.50;99.90;;;;;;4972613;28;20099;-76
2022/04/05 09:34:48;;;;;;;0.00;0.00;;;10.50;99.90;;;;;;4973756;28;20112;-75
2022/04/05 09:37:14;;;;;;;0.80;0.35;;;10.50;99.90;;;;;;4974370;28;20066;-77
2022/04/05 09:39:41;;;;;;;0.00;0.00;;;10.50;99.90;;;;;;4973753;28;20568;-77
2022/04/05 09:42:08;;;;;;;0.00;0.00;;;10.50;99.90;;;;;;4971380;28;20044;-76
2022/04/05 09:44:43;;;;;;;0.00;0.00;;;10.50;99.90;;;;;;4972035;28;20611;-76
2022/04/05 09:47:19;;;;;;;0.00;0.00;;;10.60;99.90;;;;;;4973401;28;20422;-77
2022/04/05 09:49:48;;;;;;;0.00;0.00;;;10.50;99.90;;;;;;4954141;28;20020;-75
2022/04/05 09:52:25;;;;;;;0.08;0.08;;;10.50;99.90;;;;;;4964393;28;20055;-77
2022/04/05 09:54:51;;;;;;;0.00;0.00;;;10.50;99.90;;;;;;4973629;28;20050;-77
2022/04/05 09:57:31;;;;;;;0.00;0.00;;;10.70;99.90;;;;;;4973003;28;20486;-75
2022/04/05 10:00:12;;;;;;;0.13;0.13;;;10.60;99.90;;;;;;4974012;28;20065;-76
2022/04/05 10:02:58;;;;;;;0.10;0.10;;;10.50;99.90;;;;;;4972948;28;20033;-77
2022/04/05 10:05:23;;;;;;;1.65;0.95;;;10.60;99.90;;;;;;4974375;28;20183;-77
2022/04/05 10:07:49;;;;;;;0.05;0.05;;;10.60;99.90;;;;;;4973746;28;20573;-77
2022/04/05 10:10:15;;;;;;;0.00;0.00;;;10.60;99.90;;;;;;4973170;28;20026;-75
2022/04/05 10:12:41;;;;;;;0.00;0.00;;;10.70;99.90;;;;;;4971889;28;20030;-75
2022/04/05 10:15:07;;;;;;;0.00;0.00;;;10.70;99.90;;;;;;4971128;28;20069;-75
2022/04/05 10:17:35;;;;;;;0.00;0.00;;;10.70;99.90;;;;;;4972276;28;20076;-77
2022/04/05 10:20:01;;;;;;;0.00;0.00;;;10.70;99.90;;;;;;4972327;28;20023;-75
2022/04/05 10:22:27;;;;;;;0.00;0.00;;;10.70;99.90;;;;;;4971268;28;20494;-74
2022/04/05 10:24:54;;;;;;;0.00;0.00;;;10.60;99.90;;;;;;4972922;28;20027;-75
2022/04/05 10:27:21;;;;;;;0.45;0.45;;;10.70;99.90;;;;;;4972056;28;20068;-75
2022/04/05 10:30:05;;;;;;;0.00;0.00;;;10.90;99.90;;;;;;4971224;28;20074;-76
2022/04/05 10:32:38;;;;;;;0.00;0.00;;;10.80;99.90;;;;;;4976614;28;20030;-77
2022/04/05 10:35:06;;;;;;;0.00;0.00;;;10.80;99.90;;;;;;4966212;28;20113;-76
2022/04/05 10:37:36;;;;;;;0.00;0.00;;;10.80;99.90;;;;;;4972788;28;20050;-75
2022/04/05 10:40:02;;;;;;;0.00;0.00;;;10.90;99.90;;;;;;4970582;28;20031;-75
2022/04/05 10:42:37;;;;;;;0.00;0.00;;;10.90;99.90;;;;;;4970807;28;20399;-74
2022/04/05 10:45:29;;;;;;;0.00;0.00;;;10.80;99.90;;;;;;4971083;28;20031;-75
2022/04/05 10:48:01;;;;;;;0.00;0.00;;;10.80;99.90;;;;;;4970840;28;20030;-77
2022/04/05 10:50:27;;;;;;;0.00;0.00;;;10.90;99.90;;;;;;4971367;28;20034;-75
2022/04/05 10:53:18;;;;;;;0.00;0.00;;;10.90;99.90;;;;;;4971295;28;20094;-75
2022/04/05 10:56:02;;;;;;;0.00;0.00;;;11.10;99.90;;;;;;4970282;28;20109;-76
2022/04/05 10:58:33;;;;;;;0.47;0.40;;;11.10;99.90;;;;;;4970167;28;20027;-76
2022/04/05 11:01:23;;;;;;;0.00;0.00;;;11.20;99.90;;;;;;4971531;28;20031;-75
2022/04/05 11:04:14;;;;;;;0.00;0.00;;;11.30;99.90;;;;;;4971365;28;20037;-74
2022/04/05 11:06:59;;;;;;;0.00;0.00;;;11.10;99.90;;;;;;4966973;28;20027;-75
2022/04/05 11:09:35;;;;;;;0.00;0.00;;;11.10;99.90;;;;;;4972595;28;20027;-75
2022/04/05 11:12:11;;;;;;;0.00;0.00;;;11.20;99.90;;;;;;4970606;28;20529;-76
2022/04/05 11:14:42;;;;;;;0.00;0.00;;;11.20;99.90;;;;;;4971171;28;20021;-74
2022/04/05 11:17:10;;;;;;;0.43;0.43;;;11.20;99.90;;;;;;4968602;28;20039;-77
2022/04/05 11:19:42;;;;;;;0.00;0.00;;;11.30;99.90;;;;;;4970230;28;20568;-76
2022/04/05 11:22:38;;;;;;;0.00;0.00;;;11.30;99.90;;;;;;4971604;28;20122;-76
2022/04/05 11:25:09;;;;;;;0.00;0.00;;;11.30;99.90;;;;;;4969986;28;20038;-75
2022/04/05 11:27:46;;;;;;;0.00;0.00;;;11.20;99.90;;;;;;4970988;28;20035;-75
2022/04/05 11:30:36;;;;;;;0.40;0.40;;;11.20;99.90;;;;;;4970652;28;20023;-76
2022/04/05 11:33:33;;;;;;;0.00;0.00;;;11.30;99.90;;;;;;4970200;28;20398;-74
2022/04/05 11:36:01;;;;;;;0.00;0.00;;;11.20;99.90;;;;;;4972247;28;20402;-75
2022/04/05 11:38:35;;;;;;;0.00;0.00;;;11.30;99.90;;;;;;4973768;28;20403;-76
2022/04/05 11:41:08;;;;;;;0.00;0.00;;;11.40;99.90;;;;;;4971451;28;20030;-75
2022/04/05 11:43:42;;;;;;;;;;;11.30;99.90;;;;;;4972552;28;20035;-76
2022/04/05 11:46:31;;;;;;;0.03;0.03;;;11.40;99.90;;;;;;4984643;28;19928;-75
2022/04/05 11:49:03;;;;;;;0.00;0.00;;;11.50;99.90;;;;;;4969618;28;20050;-76
2022/04/05 11:51:36;;;;;;;0.00;0.00;;;11.50;99.90;;;;;;4970142;28;20173;-75
2022/04/05 11:54:09;;;;;;;0.10;0.00;;;11.50;99.90;;;;;;4969463;28;20110;-75
2022/04/05 11:56:36;;;;;;;7.88;1.00;;;11.50;99.90;;;;;;4965988;28;20787;-74
2022/04/05 11:59:04;;;;;;;0.00;0.00;;;11.50;99.90;;;;;;4964875;28;20125;-77
2022/04/05 12:01:34;;;;;;;0.00;0.00;;;11.60;99.90;;;;;;4966169;28;20019;-75
2022/04/05 12:04:07;;;;;;;0.00;0.00;;;11.60;99.90;;;;;;4968842;28;20030;-78
2022/04/05 12:06:37;;;;;;;0.00;0.00;;;11.80;99.90;;;;;;4970809;28;20039;-75
2022/04/05 12:09:05;;;;;;;0.43;0.43;;;11.90;99.90;;;;;;4970810;28;20022;-80
2022/04/05 12:11:33;;;;;;;0.60;0.60;;;11.80;99.90;;;;;;4970003;28;20046;-76
2022/04/05 12:14:05;;;;;;;0.32;0.32;;;11.80;99.90;;;;;;4970426;28;20037;-79
2022/04/05 12:16:46;;;;;;;0.30;0.30;;;11.90;99.90;;;;;;4983271;28;20034;-79
2022/04/05 12:19:35;;;;;;;0.00;0.00;;;11.90;99.90;;;;;;4969849;28;20110;-75
2022/04/05 12:22:14;;;;;;;0.00;0.00;;;11.80;99.90;;;;;;4968900;28;20086;-74
2022/04/05 12:24:50;;;;;;;0.00;0.00;;;11.90;99.90;;;;;;4965271;28;20030;-75
2022/04/05 12:27:18;;;;;;;0.22;0.22;;;12.00;99.90;;;;;;4983572;28;20118;-75
2022/04/05 12:29:43;;;;;;;0.88;0.20;;;11.90;99.90;;;;;;4970500;28;20022;-77
2022/04/05 12:32:14;;;;;;;0.00;0.00;;;11.90;99.90;;;;;;4970867;28;20504;-76
2022/04/05 12:34:41;;;;;;;0.00;0.00;;;12.00;99.90;;;;;;4970532;28;20110;-76
2022/04/05 12:37:17;;;;;;;0.00;0.00;;;11.90;99.90;;;;;;4969824;28;20061;-77
2022/04/05 12:39:49;;;;;;;0.15;0.08;;;12.00;99.90;;;;;;4971311;28;20379;-75
2022/04/05 12:42:14;;;;;;;0.10;0.10;;;12.00;99.90;;;;;;4969340;28;20054;-76
2022/04/05 12:44:46;;;;;;;0.08;0.08;;;11.90;99.90;;;;;;4969571;28;20066;-75
2022/04/05 12:47:20;;;;;;;0.00;0.00;;;12.10;99.90;;;;;;4970292;28;20094;-76
2022/04/05 12:49:49;;;;;;;0.00;0.00;;;12.10;99.90;;;;;;4970461;28;20042;-75
2022/04/05 12:52:20;;;;;;;0.00;0.00;;;12.10;99.90;;;;;;4970679;28;20025;-77
2022/04/05 12:54:47;;;;;;;0.20;0.13;;;12.10;99.90;;;;;;4992033;28;20035;-77
2022/04/05 12:57:32;;;;;;;0.00;0.00;;;12.10;99.90;;;;;;4977497;28;20590;-76
2022/04/05 13:00:16;;;;;;;0.20;0.20;;;12.10;99.90;;;;;;4971893;28;20122;-78